Time;durP1;ratioP1;P1;durP2;ratioP2;P2;SDS_P1;SDS_P2;PMS_P1;PMS_P2;Temp;Humidity;BMP_temperature;BMP_pressure;BME280_temperature;BME280_humidity;BME280_pressure;Samples;Min_cycle;Max_cycle;Signal;HPM_P1;HPM_P2
2021/06/26 00:02:04;;;;;;;9.30;8.18;;;20.70;69.40;;;;;;5106640;28;27435;-60
2021/06/26 00:04:51;;;;;;;10.65;9.18;;;20.70;69.50;;;;;;5106565;28;27453;-60
2021/06/26 00:07:38;;;;;;;9.40;8.50;;;20.70;69.60;;;;;;5092015;28;27426;-60
2021/06/26 00:10:24;;;;;;;9.93;7.60;;;20.60;69.40;;;;;;5106231;28;27330;-59
2021/06/26 00:13:12;;;;;;;9.50;8.50;;;20.60;69.50;;;;;;5106153;28;27971;-59
2021/06/26 00:15:59;;;;;;;10.93;8.00;;;20.60;69.60;;;;;;5102442;28;27490;-60
2021/06/26 00:18:46;;;;;;;9.18;8.02;;;20.60;69.90;;;;;;5106330;28;27406;-60
2021/06/26 00:21:34;;;;;;;9.55;8.43;;;20.60;69.60;;;;;;5103320;28;27428;-60
2021/06/26 00:24:20;;;;;;;9.02;8.13;;;20.60;69.90;;;;;;5105294;27;27402;-61
2021/06/26 00:27:10;;;;;;;13.52;8.20;;;20.60;69.80;;;;;;5106093;28;27462;-61
2021/06/26 00:29:57;;;;;;;10.55;7.57;;;20.60;69.70;;;;;;5106650;28;27394;-60
2021/06/26 00:32:44;;;;;;;10.18;7.43;;;20.60;69.70;;;;;;5103549;28;27356;-61
2021/06/26 00:35:31;;;;;;;8.07;7.03;;;20.60;69.50;;;;;;5106345;28;27876;-61
2021/06/26 00:38:18;;;;;;;9.20;7.63;;;20.60;69.70;;;;;;5102339;28;27406;-58
2021/06/26 00:41:05;;;;;;;8.13;7.32;;;20.60;69.90;;;;;;5106018;28;27444;-59
2021/06/26 00:43:56;;;;;;;8.18;6.95;;;20.60;70.00;;;;;;5106601;28;27474;-61
2021/06/26 00:46:42;;;;;;;10.27;6.82;;;20.60;69.70;;;;;;5103254;28;28000;-60
2021/06/26 00:49:30;;;;;;;10.90;7.32;;;20.50;69.90;;;;;;5105365;28;27480;-63
2021/06/26 00:52:24;;;;;;;8.68;6.63;;;20.50;69.60;;;;;;5105843;28;27335;-61
2021/06/26 00:55:33;;;;;;;9.88;7.22;;;20.50;69.80;;;;;;5106267;28;27405;-60
2021/06/26 00:58:24;;;;;;;12.23;6.65;;;20.50;70.00;;;;;;5091444;28;27987;-60
2021/06/26 01:01:15;;;;;;;10.70;6.88;;;20.50;69.80;;;;;;5106310;28;27499;-59
2021/06/26 01:04:05;;;;;;;8.80;7.05;;;20.50;69.90;;;;;;5106116;28;27403;-61
2021/06/26 01:06:57;;;;;;;10.75;8.20;;;20.50;69.90;;;;;;5087723;28;27374;-60
2021/06/26 01:09:44;;;;;;;9.18;6.47;;;20.40;70.00;;;;;;5101860;28;27445;-60
2021/06/26 01:12:33;;;;;;;7.72;6.95;;;20.40;70.10;;;;;;5105131;28;27438;-60
2021/06/26 01:15:20;;;;;;;8.43;7.18;;;20.40;70.10;;;;;;5105706;28;27389;-60
2021/06/26 01:18:08;;;;;;;10.35;7.68;;;20.40;70.20;;;;;;5104828;28;27479;-60
2021/06/26 01:20:56;;;;;;;7.80;6.90;;;20.40;70.20;;;;;;5091022;28;27468;-60
2021/06/26 01:23:50;;;;;;;10.90;6.93;;;20.40;70.10;;;;;;5105313;28;27382;-60
2021/06/26 01:26:38;;;;;;;10.13;7.20;;;20.40;70.20;;;;;;5102492;28;27320;-60
2021/06/26 01:29:26;;;;;;;9.18;7.50;;;20.30;70.30;;;;;;5105222;28;27414;-61
2021/06/26 01:32:12;;;;;;;13.02;7.72;;;20.30;70.40;;;;;;5104908;28;27419;-60
2021/06/26 01:34:59;;;;;;;8.68;7.30;;;20.30;70.20;;;;;;5103781;28;27469;-60
2021/06/26 01:37:46;;;;;;;7.88;7.07;;;20.30;70.30;;;;;;5101573;28;27391;-59
2021/06/26 01:40:33;;;;;;;7.82;6.97;;;20.30;70.20;;;;;;5104107;28;27332;-59
2021/06/26 01:43:20;;;;;;;9.52;7.47;;;20.30;70.20;;;;;;5090590;28;27375;-60
2021/06/26 01:46:07;;;;;;;9.93;7.93;;;20.30;70.20;;;;;;5104719;28;27479;-60
2021/06/26 01:48:54;;;;;;;7.50;6.78;;;20.30;70.40;;;;;;5105598;28;27410;-60
2021/06/26 01:51:40;;;;;;;7.25;6.50;;;20.20;70.40;;;;;;5105582;28;27402;-60
2021/06/26 01:54:27;;;;;;;11.35;7.35;;;20.20;70.60;;;;;;5105454;28;27374;-60
2021/06/26 01:57:13;;;;;;;8.00;7.20;;;20.20;70.60;;;;;;5104408;28;27366;-60
2021/06/26 02:00:00;;;;;;;9.63;6.95;;;20.20;70.40;;;;;;5104524;28;27439;-60
2021/06/26 02:02:47;;;;;;;7.30;6.30;;;20.20;70.50;;;;;;5105143;28;27403;-58
2021/06/26 02:05:33;;;;;;;8.65;6.53;;;20.20;70.60;;;;;;5105415;28;27445;-58
2021/06/26 02:08:20;;;;;;;9.70;7.30;;;20.10;70.70;;;;;;5105023;28;27462;-59
2021/06/26 02:11:07;;;;;;;7.60;6.47;;;20.10;70.60;;;;;;5104102;28;27453;-59
2021/06/26 02:13:53;;;;;;;7.78;6.65;;;20.10;70.70;;;;;;5105074;28;27388;-60
2021/06/26 02:16:40;;;;;;;8.30;7.40;;;20.10;71.00;;;;;;5105194;28;27338;-58
2021/06/26 02:19:26;;;;;;;8.15;6.25;;;20.10;70.90;;;;;;5089946;28;27481;-59
2021/06/26 02:22:13;;;;;;;10.30;6.03;;;20.10;71.00;;;;;;5104154;28;27548;-58
2021/06/26 02:25:04;;;;;;;13.77;7.15;;;20.10;71.00;;;;;;5104796;28;27396;-59
2021/06/26 02:27:51;;;;;;;7.45;6.72;;;20.10;71.10;;;;;;5104727;28;27845;-59
2021/06/26 02:30:38;;;;;;;8.00;7.00;;;20.00;71.00;;;;;;5105063;28;27414;-59
2021/06/26 02:33:25;;;;;;;7.57;6.68;;;20.00;70.80;;;;;;5101075;28;27453;-58
2021/06/26 02:36:11;;;;;;;9.65;7.57;;;20.00;70.90;;;;;;5104484;28;27363;-59
2021/06/26 02:38:57;;;;;;;8.52;7.55;;;20.00;70.90;;;;;;5103816;28;27628;-60
2021/06/26 02:41:44;;;;;;;7.68;6.93;;;20.00;71.00;;;;;;5104636;28;27375;-59
2021/06/26 02:44:30;;;;;;;7.65;6.50;;;20.00;71.80;;;;;;5104174;28;27385;-59
2021/06/26 02:47:18;;;;;;;8.88;7.63;;;20.00;71.00;;;;;;5104290;28;27400;-59
2021/06/26 02:50:07;;;;;;;9.65;6.85;;;20.00;70.70;;;;;;5100734;28;27433;-58
2021/06/26 02:52:54;;;;;;;9.48;6.80;;;20.00;70.70;;;;;;5104493;28;27394;-58
2021/06/26 02:55:40;;;;;;;8.05;7.25;;;20.00;70.50;;;;;;5104550;28;27364;-57
2021/06/26 02:58:27;;;;;;;8.15;7.25;;;19.90;70.40;;;;;;5104755;28;27407;-58
2021/06/26 03:01:13;;;;;;;7.72;6.85;;;19.90;70.30;;;;;;5100424;28;27470;-60
2021/06/26 03:04:00;;;;;;;12.05;6.85;;;19.90;70.40;;;;;;5104644;28;27485;-60
2021/06/26 03:06:46;;;;;;;6.80;6.20;;;19.90;70.40;;;;;;5103441;28;27413;-58
2021/06/26 03:09:32;;;;;;;10.98;7.13;;;19.80;70.30;;;;;;5089333;28;27384;-59
2021/06/26 03:12:19;;;;;;;7.65;6.85;;;19.80;70.20;;;;;;5104590;28;27401;-58
2021/06/26 03:15:07;;;;;;;7.97;6.68;;;19.70;70.20;;;;;;5104355;28;27479;-58
2021/06/26 03:17:54;;;;;;;8.18;6.20;;;19.70;70.20;;;;;;5103518;28;27452;-60
2021/06/26 03:20:43;;;;;;;7.40;5.88;;;19.70;70.20;;;;;;5100910;28;27407;-58
2021/06/26 03:23:30;;;;;;;7.85;6.80;;;19.70;70.20;;;;;;5086097;28;27393;-59
2021/06/26 03:26:16;;;;;;;9.63;7.18;;;19.70;70.20;;;;;;5104305;28;27435;-62
2021/06/26 03:29:03;;;;;;;8.43;6.72;;;19.60;70.10;;;;;;5104110;28;27410;-61
2021/06/26 03:31:50;;;;;;;8.90;6.40;;;19.60;70.10;;;;;;5103545;28;26969;-60
2021/06/26 03:34:37;;;;;;;7.07;6.38;;;19.60;70.00;;;;;;5103399;28;28031;-59
2021/06/26 03:37:24;;;;;;;7.88;7.00;;;19.60;70.00;;;;;;5103420;28;27383;-59
2021/06/26 03:40:11;;;;;;;10.05;6.43;;;19.50;69.90;;;;;;5103074;28;27498;-59
2021/06/26 03:42:58;;;;;;;11.32;7.25;;;19.50;69.80;;;;;;5103531;28;27465;-59
2021/06/26 03:45:44;;;;;;;8.73;7.00;;;19.50;69.80;;;;;;5100820;28;27418;-59
2021/06/26 03:48:32;;;;;;;7.57;6.78;;;19.40;69.80;;;;;;5085791;28;27330;-59
2021/06/26 03:51:19;;;;;;;6.57;5.88;;;19.50;69.80;;;;;;5103274;28;27344;-58
2021/06/26 03:54:06;;;;;;;8.43;6.65;;;19.40;69.80;;;;;;5103297;28;27320;-59
2021/06/26 03:56:52;;;;;;;6.97;6.00;;;19.40;69.80;;;;;;5102821;28;28054;-59
2021/06/26 03:59:39;;;;;;;7.18;6.47;;;19.40;69.80;;;;;;5101418;28;27524;-59
2021/06/26 04:02:26;;;;;;;7.93;7.13;;;19.40;69.80;;;;;;5106676;28;27406;-59
2021/06/26 04:05:12;;;;;;;9.90;6.60;;;19.40;70.00;;;;;;5092196;28;27387;-58
2021/06/26 04:07:59;;;;;;;7.32;6.63;;;19.30;70.00;;;;;;5106922;28;27348;-59
2021/06/26 04:10:45;;;;;;;8.50;6.60;;;19.30;70.10;;;;;;5103229;28;27386;-59
2021/06/26 04:13:43;;;;;;;9.27;6.63;;;19.30;70.10;;;;;;5106941;28;27420;-59
2021/06/26 04:16:30;;;;;;;13.13;6.95;;;19.30;70.20;;;;;;5106089;28;27476;-59
2021/06/26 04:19:17;;;;;;;9.15;5.63;;;19.30;70.20;;;;;;5107052;28;27314;-59
2021/06/26 04:22:04;;;;;;;9.25;6.25;;;19.30;70.20;;;;;;5103730;28;27322;-59
2021/06/26 04:24:52;;;;;;;7.18;5.78;;;19.30;70.20;;;;;;5105955;28;27402;-59
2021/06/26 04:27:39;;;;;;;11.20;6.63;;;19.20;70.30;;;;;;5105621;28;27404;-60
2021/06/26 04:30:25;;;;;;;6.97;6.32;;;19.30;70.50;;;;;;5102580;28;27463;-60
2021/06/26 04:33:13;;;;;;;10.68;6.70;;;19.20;70.60;;;;;;5106087;28;27332;-59
2021/06/26 04:36:00;;;;;;;11.75;6.63;;;19.30;70.80;;;;;;5106351;28;27394;-61
2021/06/26 04:38:46;;;;;;;9.15;6.95;;;19.20;70.90;;;;;;5102479;28;27499;-59
2021/06/26 04:41:32;;;;;;;8.45;6.30;;;19.30;71.10;;;;;;5103341;28;27387;-58
2021/06/26 04:44:19;;;;;;;9.77;6.40;;;19.30;71.30;;;;;;5106354;28;27467;-59
2021/06/26 04:47:05;;;;;;;7.80;5.90;;;19.30;71.40;;;;;;5106690;28;27465;-59
2021/06/26 04:49:51;;;;;;;11.85;7.28;;;19.30;71.60;;;;;;5106328;28;27328;-59
2021/06/26 04:52:40;;;;;;;10.93;6.95;;;19.30;71.60;;;;;;5105842;28;27328;-59
2021/06/26 04:55:27;;;;;;;10.00;7.63;;;19.30;71.70;;;;;;5105311;28;27498;-59
2021/06/26 04:58:13;;;;;;;8.43;6.90;;;19.30;71.90;;;;;;5105757;28;27500;-59
2021/06/26 05:01:01;;;;;;;9.20;7.07;;;19.40;72.10;;;;;;5106161;28;27469;-60
2021/06/26 05:03:48;;;;;;;7.85;6.85;;;19.40;72.20;;;;;;5106081;28;27334;-59
2021/06/26 05:06:35;;;;;;;9.32;7.53;;;19.40;72.20;;;;;;5106392;28;27316;-59
2021/06/26 05:09:21;;;;;;;12.80;7.30;;;19.40;72.50;;;;;;5106188;27;27640;-60
2021/06/26 05:12:09;;;;;;;9.27;6.95;;;19.40;72.50;;;;;;5106239;28;27402;-59
2021/06/26 05:14:56;;;;;;;9.75;8.10;;;19.50;72.60;;;;;;5105345;28;27391;-59
2021/06/26 05:17:43;;;;;;;13.40;8.55;;;19.50;72.70;;;;;;5105374;28;27352;-59
2021/06/26 05:20:32;;;;;;;10.30;8.75;;;19.60;72.80;;;;;;5102880;28;27403;-59
2021/06/26 05:23:20;;;;;;;11.52;9.02;;;19.60;72.90;;;;;;5105635;28;27624;-59
2021/06/26 05:26:09;;;;;;;10.50;9.00;;;19.60;73.00;;;;;;5105256;28;27949;-60
2021/06/26 05:28:57;;;;;;;11.20;9.02;;;19.60;73.20;;;;;;5105142;28;27461;-60
2021/06/26 05:31:43;;;;;;;12.20;9.80;;;19.70;73.40;;;;;;5105990;28;27478;-58
2021/06/26 05:34:30;;;;;;;9.45;8.52;;;19.70;73.30;;;;;;5105465;28;27389;-60
2021/06/26 05:37:17;;;;;;;13.75;10.18;;;19.70;73.70;;;;;;5102297;28;27339;-60
2021/06/26 05:40:04;;;;;;;9.98;9.02;;;19.80;73.90;;;;;;5103836;28;27416;-59
2021/06/26 05:42:51;;;;;;;11.80;10.05;;;19.80;73.90;;;;;;5105793;28;27382;-59
2021/06/26 05:45:37;;;;;;;13.48;10.18;;;19.90;74.10;;;;;;5105439;28;27533;-60
2021/06/26 05:48:24;;;;;;;11.15;9.95;;;19.90;73.70;;;;;;5104947;28;27955;-59
2021/06/26 05:51:16;;;;;;;13.10;11.23;;;20.00;73.80;;;;;;5103673;28;27493;-61
2021/06/26 05:54:04;;;;;;;16.48;11.32;;;20.00;73.70;;;;;;5105787;28;26902;-61
2021/06/26 05:56:51;;;;;;;12.75;10.52;;;20.20;73.70;;;;;;5101599;28;27371;-59
2021/06/26 05:59:38;;;;;;;12.45;11.18;;;20.40;73.50;;;;;;5105619;28;27997;-61
2021/06/26 06:02:25;;;;;;;12.75;10.70;;;20.60;73.30;;;;;;5102207;28;27382;-59
2021/06/26 06:08:56;;;;;;;13.18;10.00;;;20.90;73.20;;;;;;5105425;28;27420;-59
2021/06/26 06:11:49;;;;;;;14.57;12.40;;;20.90;72.80;;;;;;5105046;28;27407;-59
2021/06/26 06:14:36;;;;;;;14.15;11.32;;;21.00;73.30;;;;;;5101961;28;27535;-60
2021/06/26 06:17:23;;;;;;;13.73;12.20;;;21.00;73.50;;;;;;5102673;28;27433;-61
2021/06/26 06:20:10;;;;;;;13.10;11.35;;;21.10;73.60;;;;;;5105190;28;26997;-61
2021/06/26 06:22:57;;;;;;;14.35;11.55;;;21.20;73.40;;;;;;5057913;28;27974;-61
2021/06/26 06:25:43;;;;;;;12.57;11.27;;;21.30;73.30;;;;;;5104068;28;27398;-61
2021/06/26 06:28:29;;;;;;;12.75;11.38;;;21.30;73.20;;;;;;5104877;28;27329;-60
2021/06/26 06:31:29;;;;;;;14.57;12.60;;;21.30;73.50;;;;;;5101785;28;27305;-61
2021/06/26 06:34:17;;;;;;;13.60;11.82;;;21.40;73.60;;;;;;5086908;28;27935;-61
2021/06/26 06:37:04;;;;;;;13.85;11.00;;;21.60;73.40;;;;;;5100909;28;27395;-61
2021/06/26 06:39:51;;;;;;;13.38;11.57;;;21.70;73.10;;;;;;5103846;28;27387;-60
2021/06/26 06:42:37;;;;;;;17.23;11.38;;;21.90;72.70;;;;;;5100805;28;27433;-61
2021/06/26 06:45:25;;;;;;;13.15;10.50;;;22.00;72.80;;;;;;5103605;28;27997;-64
2021/06/26 06:48:12;;;;;;;15.55;12.23;;;22.10;72.60;;;;;;5100455;28;27398;-60
2021/06/26 06:50:59;;;;;;;14.63;11.07;;;22.20;72.40;;;;;;5104138;28;27331;-61
2021/06/26 06:53:49;;;;;;;14.40;11.98;;;22.40;72.30;;;;;;5072097;28;26881;-60
2021/06/26 06:56:35;;;;;;;14.02;11.60;;;22.50;72.00;;;;;;5100011;28;27466;-61
2021/06/26 06:59:22;;;;;;;12.20;10.50;;;22.70;71.40;;;;;;5104659;28;27446;-61
2021/06/26 07:02:08;;;;;;;13.00;10.68;;;22.90;71.00;;;;;;5103951;28;27319;-64
2021/06/26 07:05:01;;;;;;;11.45;10.00;;;23.10;70.80;;;;;;5104623;28;27324;-61
2021/06/26 07:07:49;;;;;;;13.35;11.43;;;23.20;70.20;;;;;;5104292;28;27381;-60
2021/06/26 07:10:36;;;;;;;10.80;9.00;;;23.30;70.20;;;;;;5104565;28;27381;-61
2021/06/26 07:13:23;;;;;;;14.80;11.80;;;23.40;69.90;;;;;;5103881;28;27416;-61
2021/06/26 07:16:10;;;;;;;14.93;12.27;;;23.50;69.90;;;;;;5103898;28;27457;-61
2021/06/26 07:18:58;;;;;;;12.25;11.00;;;23.60;70.00;;;;;;5101113;28;27358;-60
2021/06/26 07:21:46;;;;;;;12.25;10.15;;;23.70;70.20;;;;;;5100371;28;27355;-60
2021/06/26 07:56:45;;;;;;;7.90;7.20;;;26.00;62.10;;;;;;5106050;28;27470;-60
2021/06/26 07:59:29;;;;;;;9.88;7.00;;;26.10;59.90;;;;;;5107397;28;27399;-60
2021/06/26 08:02:14;;;;;;;7.57;6.78;;;26.20;59.40;;;;;;5107049;28;27487;-60
2021/06/26 08:04:58;;;;;;;7.55;6.85;;;26.40;60.10;;;;;;5106712;28;27412;-61
2021/06/26 08:07:43;;;;;;;7.72;7.03;;;26.60;60.00;;;;;;5107023;28;27435;-61
2021/06/26 08:10:27;;;;;;;8.95;6.80;;;26.90;57.90;;;;;;5107160;28;27486;-60
2021/06/26 08:13:14;;;;;;;7.78;6.68;;;27.10;57.00;;;;;;5103109;28;27456;-61
2021/06/26 08:15:59;;;;;;;6.88;6.28;;;27.20;57.00;;;;;;5103287;28;27446;-60
2021/06/26 08:18:44;;;;;;;6.97;6.28;;;27.40;56.70;;;;;;5107140;28;27471;-60
2021/06/26 08:21:30;;;;;;;6.90;6.30;;;27.40;56.10;;;;;;5107035;28;27501;-62
2021/06/26 08:24:14;;;;;;;7.05;6.38;;;27.40;56.50;;;;;;5106943;28;27907;-61
2021/06/26 08:27:00;;;;;;;6.75;6.10;;;27.50;56.10;;;;;;5106911;28;27391;-60
2021/06/26 08:29:44;;;;;;;5.78;5.28;;;27.40;55.00;;;;;;5106634;28;27411;-61
2021/06/26 08:32:29;;;;;;;8.63;6.10;;;27.30;55.40;;;;;;5106342;28;27399;-61
2021/06/26 08:35:13;;;;;;;7.10;6.50;;;27.30;56.40;;;;;;5103356;28;27456;-61
2021/06/26 08:37:58;;;;;;;6.82;6.10;;;27.30;56.80;;;;;;5106748;28;27446;-62
2021/06/26 08:40:43;;;;;;;6.60;5.97;;;27.10;56.90;;;;;;5106822;28;27461;-60
2021/06/26 08:43:27;;;;;;;6.20;5.70;;;27.10;57.90;;;;;;5105658;28;27453;-61
2021/06/26 08:46:12;;;;;;;6.30;5.70;;;27.10;58.70;;;;;;5101705;27;27389;-63
2021/06/26 08:48:58;;;;;;;6.25;5.75;;;27.30;60.10;;;;;;5106605;28;27481;-61
2021/06/26 08:51:43;;;;;;;6.25;5.65;;;27.40;59.30;;;;;;5106605;28;27461;-61
2021/06/26 08:54:28;;;;;;;6.57;5.95;;;27.40;59.20;;;;;;5105709;28;27455;-62
2021/06/26 08:57:14;;;;;;;6.28;5.78;;;27.50;58.50;;;;;;5106507;28;27859;-61
2021/06/26 08:59:59;;;;;;;6.18;5.68;;;27.70;59.40;;;;;;5105894;28;27450;-61
2021/06/26 09:02:43;;;;;;;6.68;6.05;;;27.90;58.40;;;;;;5106203;28;27424;-61
2021/06/26 09:05:29;;;;;;;6.18;5.47;;;28.10;57.80;;;;;;5106046;28;27470;-58
2021/06/26 09:08:19;;;;;;;6.38;5.78;;;28.30;58.60;;;;;;5106284;28;27521;-58
2021/06/26 09:11:03;;;;;;;8.02;6.20;;;28.50;58.20;;;;;;5105963;28;27328;-58
2021/06/26 09:13:48;;;;;;;6.25;5.75;;;28.50;58.20;;;;;;5105228;28;27379;-61
2021/06/26 09:16:33;;;;;;;5.57;4.50;;;28.30;56.90;;;;;;5105908;28;27377;-61
2021/06/26 09:19:18;;;;;;;4.95;4.55;;;28.20;56.10;;;;;;5105325;28;27378;-61
2021/06/26 09:22:06;;;;;;;5.00;4.60;;;28.20;56.30;;;;;;5106091;28;27587;-61
2021/06/26 09:24:52;;;;;;;5.57;4.90;;;28.20;56.80;;;;;;5106120;28;27427;-61
2021/06/26 09:27:36;;;;;;;5.65;5.15;;;28.20;56.80;;;;;;5105418;28;27461;-61
2021/06/26 09:30:35;;;;;;;5.20;4.80;;;28.00;54.50;;;;;;5105609;28;27493;-60
2021/06/26 09:33:22;;;;;;;5.03;4.53;;;27.80;55.30;;;;;;5101579;28;27427;-60
2021/06/26 09:36:09;;;;;;;5.20;4.80;;;27.60;55.80;;;;;;5104915;28;27410;-61
2021/06/26 09:39:01;;;;;;;5.53;5.03;;;27.60;55.80;;;;;;5105532;28;27371;-61
2021/06/26 09:41:50;;;;;;;5.50;5.00;;;27.40;55.40;;;;;;5105764;28;27381;-61
2021/06/26 09:44:34;;;;;;;5.35;4.85;;;27.30;56.80;;;;;;5105728;28;27410;-61
2021/06/26 09:47:42;;;;;;;5.80;5.30;;;27.20;57.30;;;;;;5105471;28;27393;-61
2021/06/26 09:50:27;;;;;;;5.63;5.13;;;27.40;57.80;;;;;;5105589;28;27403;-61
2021/06/26 09:53:12;;;;;;;7.13;5.60;;;27.80;58.70;;;;;;5105561;28;27983;-60
2021/06/26 09:55:57;;;;;;;9.75;6.03;;;28.00;56.50;;;;;;5103578;27;27464;-61
2021/06/26 09:58:49;;;;;;;6.68;5.80;;;28.00;51.00;;;;;;5101198;28;27485;-63
2021/06/26 10:01:36;;;;;;;7.97;6.00;;;27.90;52.60;;;;;;5105168;28;27384;-61
2021/06/26 10:04:20;;;;;;;6.05;5.55;;;27.80;53.40;;;;;;5105072;28;27403;-61
2021/06/26 10:07:05;;;;;;;6.03;4.95;;;27.60;53.90;;;;;;5105058;28;27448;-61
2021/06/26 10:09:50;;;;;;;5.65;5.15;;;27.40;54.90;;;;;;5105145;28;27431;-61
2021/06/26 10:12:36;;;;;;;5.97;5.47;;;27.50;56.40;;;;;;5104682;28;27366;-63
2021/06/26 10:15:22;;;;;;;5.28;4.88;;;27.80;57.20;;;;;;5104291;28;27908;-61
2021/06/26 10:18:10;;;;;;;5.85;5.28;;;28.20;57.30;;;;;;5101553;28;27465;-61
2021/06/26 10:20:55;;;;;;;6.05;4.70;;;28.40;57.10;;;;;;5105213;28;27461;-61
2021/06/26 10:23:40;;;;;;;5.97;5.30;;;28.60;56.50;;;;;;5104663;28;27406;-62
2021/06/26 10:26:25;;;;;;;7.85;4.93;;;28.70;53.90;;;;;;5086403;28;27949;-61
2021/06/26 10:29:09;;;;;;;7.10;5.03;;;28.80;52.90;;;;;;5105006;28;27396;-60
2021/06/26 10:31:54;;;;;;;4.75;4.30;;;28.90;51.70;;;;;;5104755;28;27615;-59
2021/06/26 10:34:47;;;;;;;5.03;4.57;;;29.10;52.80;;;;;;5089488;28;27481;-59
2021/06/26 10:37:33;;;;;;;5.97;4.97;;;29.30;54.30;;;;;;5104642;28;27453;-59
2021/06/26 10:40:17;;;;;;;9.50;6.28;;;29.30;53.00;;;;;;5104829;28;27482;-60
2021/06/26 10:43:15;;;;;;;9.73;4.90;;;29.00;47.90;;;;;;5104147;28;27430;-60
2021/06/26 10:46:13;;;;;;;6.10;5.53;;;28.80;47.50;;;;;;5104782;28;27465;-62
2021/06/26 10:49:03;;;;;;;7.45;5.85;;;28.50;48.40;;;;;;5104470;28;27389;-62
2021/06/26 10:51:47;;;;;;;7.45;6.63;;;28.30;47.70;;;;;;5101059;28;27418;-63
2021/06/26 10:54:32;;;;;;;8.35;5.70;;;28.10;49.10;;;;;;5103272;28;27411;-63
2021/06/26 10:57:16;;;;;;;7.97;5.65;;;28.20;48.70;;;;;;5104672;28;27466;-62
2021/06/26 11:00:02;;;;;;;6.22;5.28;;;28.20;47.00;;;;;;5104608;28;27438;-62
2021/06/26 11:02:47;;;;;;;6.20;5.60;;;28.10;48.30;;;;;;5104257;28;27548;-62
2021/06/26 11:05:33;;;;;;;9.02;6.28;;;27.90;48.00;;;;;;5104324;28;27403;-63
2021/06/26 11:08:19;;;;;;;8.02;5.85;;;27.70;50.60;;;;;;5105707;27;27419;-62
2021/06/26 11:11:04;;;;;;;7.35;5.55;;;27.70;49.00;;;;;;5107981;28;27860;-62
2021/06/26 11:13:49;;;;;;;10.93;5.80;;;27.70;49.10;;;;;;5108116;28;27449;-62
2021/06/26 11:16:33;;;;;;;6.03;5.43;;;27.60;50.10;;;;;;5106789;28;27532;-62
2021/06/26 11:19:18;;;;;;;32.10;6.38;;;27.50;48.80;;;;;;5107173;28;27490;-62
2021/06/26 11:22:03;;;;;;;8.35;4.90;;;27.50;50.20;;;;;;5107724;28;27474;-62
2021/06/26 11:24:48;;;;;;;10.77;5.90;;;27.50;50.90;;;;;;5107964;28;27438;-62
2021/06/26 11:27:32;;;;;;;6.35;5.75;;;27.40;50.00;;;;;;5108027;28;27489;-62
2021/06/26 11:30:17;;;;;;;6.30;5.70;;;27.30;50.10;;;;;;5107610;28;27403;-62
2021/06/26 11:33:02;;;;;;;7.03;5.28;;;27.20;50.50;;;;;;5107799;28;27459;-62
2021/06/26 11:35:47;;;;;;;6.10;5.60;;;27.20;49.00;;;;;;5106850;28;27529;-62
2021/06/26 11:38:31;;;;;;;8.10;5.47;;;27.30;50.70;;;;;;5107450;28;27463;-62
2021/06/26 11:41:16;;;;;;;6.10;5.50;;;27.60;51.00;;;;;;5106638;28;27425;-62
2021/06/26 11:44:03;;;;;;;5.70;4.85;;;28.00;50.70;;;;;;5107601;28;27493;-62
2021/06/26 11:46:47;;;;;;;5.78;5.22;;;28.10;48.10;;;;;;5106843;28;27478;-62
2021/06/26 11:49:33;;;;;;;6.68;5.38;;;28.00;47.50;;;;;;5107368;28;27457;-62
2021/06/26 11:52:18;;;;;;;5.65;5.10;;;27.80;47.70;;;;;;5107288;28;27461;-62
2021/06/26 11:55:23;;;;;;;5.40;4.63;;;27.70;48.70;;;;;;5106615;28;27466;-61
2021/06/26 12:02:53;;;;;;;6.88;5.25;;;27.50;49.60;;;;;;5103998;28;27461;-62
2021/06/26 12:05:45;;;;;;;13.48;6.13;;;27.30;49.60;;;;;;5106540;28;27480;-62
2021/06/26 12:08:57;;;;;;;6.05;5.30;;;27.30;50.10;;;;;;5107093;28;27390;-62
2021/06/26 12:11:45;;;;;;;8.68;5.00;;;27.30;49.70;;;;;;5103282;28;27343;-65
2021/06/26 12:14:34;;;;;;;9.60;5.45;;;27.40;49.50;;;;;;5104793;28;27360;-63
2021/06/26 12:17:24;;;;;;;5.95;5.05;;;27.60;50.00;;;;;;5106286;28;27478;-67
2021/06/26 12:20:16;;;;;;;5.40;4.63;;;27.70;48.90;;;;;;5101982;28;27385;-62
2021/06/26 12:23:13;;;;;;;5.25;4.50;;;27.90;48.80;;;;;;5106420;28;27385;-65
2021/06/26 12:26:02;;;;;;;7.75;4.80;;;28.00;47.60;;;;;;5075946;28;27383;-62
2021/06/26 12:28:56;;;;;;;4.45;4.05;;;27.90;47.00;;;;;;5092144;28;27450;-65
2021/06/26 12:31:57;;;;;;;6.43;4.47;;;27.90;49.10;;;;;;5103791;28;27440;-63
2021/06/26 12:35:13;;;;;;;4.50;3.97;;;28.00;49.00;;;;;;5106575;28;27418;-63
2021/06/26 12:38:09;;;;;;;4.90;4.35;;;28.10;48.70;;;;;;5106674;28;27398;-64
2021/06/26 12:40:55;;;;;;;4.30;3.95;;;28.20;48.30;;;;;;5105680;28;27327;-64
2021/06/26 12:43:40;;;;;;;7.70;3.90;;;28.30;47.40;;;;;;5106708;28;27984;-62
2021/06/26 12:46:25;;;;;;;3.90;3.60;;;28.40;47.30;;;;;;5106401;28;27618;-62
2021/06/26 12:49:19;;;;;;;4.10;3.72;;;28.30;46.10;;;;;;5106452;28;27375;-62
2021/06/26 12:52:14;;;;;;;4.10;3.80;;;28.20;46.30;;;;;;5106632;28;27362;-63
2021/06/26 12:54:59;;;;;;;8.05;4.63;;;28.10;47.60;;;;;;5105677;28;27385;-63
2021/06/26 12:57:44;;;;;;;7.50;4.05;;;28.10;47.30;;;;;;5106215;28;27450;-62
2021/06/26 13:00:28;;;;;;;4.57;4.18;;;28.20;48.70;;;;;;5106293;28;27344;-62
2021/06/26 13:03:16;;;;;;;4.57;4.18;;;28.30;48.20;;;;;;5106412;28;27370;-62
2021/06/26 13:06:08;;;;;;;4.80;4.30;;;28.30;47.60;;;;;;5106133;28;27479;-62
2021/06/26 13:08:54;;;;;;;3.97;3.67;;;28.30;47.50;;;;;;5105631;28;27328;-62
2021/06/26 13:11:40;;;;;;;3.90;3.60;;;28.40;46.90;;;;;;5106009;28;27340;-62
2021/06/26 13:14:24;;;;;;;4.22;3.40;;;28.40;46.20;;;;;;5106202;28;27381;-62
2021/06/26 13:17:11;;;;;;;4.30;3.90;;;28.50;46.00;;;;;;5106099;28;27410;-62
2021/06/26 13:19:56;;;;;;;4.07;3.78;;;28.50;46.10;;;;;;5105887;28;27348;-62
2021/06/26 13:22:42;;;;;;;4.10;3.63;;;28.70;46.50;;;;;;5105828;28;27447;-62
2021/06/26 13:25:26;;;;;;;4.10;3.80;;;28.70;46.90;;;;;;5105733;28;27445;-62
2021/06/26 13:28:11;;;;;;;4.22;3.78;;;28.70;46.60;;;;;;5105680;28;27472;-62
2021/06/26 13:30:56;;;;;;;4.78;4.38;;;28.70;46.60;;;;;;5104649;27;27508;-62
2021/06/26 13:33:41;;;;;;;6.57;3.95;;;28.70;46.10;;;;;;5105967;28;27439;-63
2021/06/26 13:36:25;;;;;;;5.38;4.00;;;28.70;48.50;;;;;;5105024;28;27395;-62
2021/06/26 13:39:11;;;;;;;4.40;4.00;;;28.70;47.10;;;;;;5104876;28;27496;-62
2021/06/26 13:41:56;;;;;;;5.25;3.92;;;28.70;45.90;;;;;;5105456;28;27407;-62
2021/06/26 13:44:40;;;;;;;4.45;3.83;;;28.60;45.90;;;;;;5102271;28;27440;-62
2021/06/26 13:47:25;;;;;;;4.50;3.63;;;28.60;47.10;;;;;;5105456;28;27382;-62
2021/06/26 13:50:10;;;;;;;4.25;3.60;;;28.50;45.60;;;;;;5105361;28;27957;-62
2021/06/26 13:52:54;;;;;;;5.65;3.42;;;28.40;45.20;;;;;;5101505;28;27477;-62
2021/06/26 13:55:41;;;;;;;4.80;4.30;;;28.20;44.40;;;;;;5103272;28;27407;-62
2021/06/26 13:58:26;;;;;;;4.68;4.20;;;28.20;45.60;;;;;;5105037;28;27457;-62
2021/06/26 14:01:11;;;;;;;4.32;3.92;;;28.10;45.80;;;;;;5102197;28;27487;-62
2021/06/26 14:03:59;;;;;;;4.00;3.67;;;28.10;46.40;;;;;;5101143;28;27445;-64
2021/06/26 14:11:02;;;;;;;4.25;3.70;;;28.00;46.50;;;;;;5101866;28;27410;-62
2021/06/26 14:14:00;;;;;;;3.42;3.13;;;28.00;46.30;;;;;;5091818;28;27326;-67
2021/06/26 14:17:30;;;;;;;3.63;3.33;;;28.00;46.20;;;;;;5104929;28;27704;-64
2021/06/26 14:20:24;;;;;;;3.28;2.97;;;28.10;45.40;;;;;;5105070;28;27394;-63
2021/06/26 14:23:18;;;;;;;3.47;3.17;;;28.10;45.90;;;;;;5087174;28;27434;-64
2021/06/26 14:26:30;;;;;;;4.72;3.58;;;28.10;46.00;;;;;;5104193;28;27427;-63
2021/06/26 14:33:27;;;;;;;3.42;3.15;;;28.10;44.00;;;;;;5104421;28;27406;-62
2021/06/26 14:36:17;;;;;;;5.13;3.60;;;28.00;44.60;;;;;;5100638;28;27372;-63
2021/06/26 14:39:09;;;;;;;3.83;3.53;;;28.00;45.70;;;;;;5090120;28;27833;-62
2021/06/26 14:42:06;;;;;;;6.00;3.75;;;27.90;46.10;;;;;;5104705;28;27332;-66
2021/06/26 14:45:12;;;;;;;4.03;3.72;;;27.90;46.90;;;;;;5103488;28;27495;-62
2021/06/26 14:47:56;;;;;;;4.68;3.85;;;27.80;46.80;;;;;;5104880;28;27403;-62
2021/06/26 14:50:42;;;;;;;3.67;3.38;;;27.80;47.80;;;;;;5104787;28;27888;-63
2021/06/26 14:53:27;;;;;;;4.50;3.70;;;27.70;46.00;;;;;;5104729;28;27449;-63
2021/06/26 14:56:11;;;;;;;3.83;3.53;;;27.70;47.10;;;;;;5103773;28;27415;-62
2021/06/26 14:58:56;;;;;;;4.10;3.75;;;27.60;47.10;;;;;;5104068;28;27493;-61
2021/06/26 15:01:41;;;;;;;4.63;3.80;;;27.60;47.10;;;;;;5104605;28;27493;-62
2021/06/26 15:04:26;;;;;;;4.00;3.63;;;27.60;47.80;;;;;;5104304;28;27439;-61
2021/06/26 15:07:10;;;;;;;4.20;3.80;;;27.60;47.80;;;;;;5103845;28;27403;-62
2021/06/26 15:09:55;;;;;;;4.88;3.58;;;27.50;46.90;;;;;;5104232;28;27382;-61
2021/06/26 15:12:40;;;;;;;3.65;3.28;;;27.50;48.30;;;;;;5104236;28;27876;-63
2021/06/26 15:15:25;;;;;;;9.98;3.88;;;27.50;47.40;;;;;;5103358;28;27405;-61
2021/06/26 15:18:09;;;;;;;3.75;3.45;;;27.40;46.70;;;;;;5104497;28;27327;-63